sensor_id;sensor_type;location;lat;lon;timestamp;P1;P2;P0
83484;PMS5003;73420;32.678;-85.380;2023-12-14T00:01:38;13;13;
83484;PMS5003;73420;32.678;-85.380;2023-12-14T00:04:04;13;12;
83484;PMS5003;73420;32.678;-85.380;2023-12-14T00:06:29;12;11;
83484;PMS5003;73420;32.678;-85.380;2023-12-14T00:08:54;12;12;
83484;PMS5003;73420;32.678;-85.380;2023-12-14T00:11:20;14;13;
83484;PMS5003;73420;32.678;-85.380;2023-12-14T00:13:45;15;15;
83484;PMS5003;73420;32.678;-85.380;2023-12-14T00:16:11;13;13;
83484;PMS5003;73420;32.678;-85.380;2023-12-14T00:18:37;15;14;
83484;PMS5003;73420;32.678;-85.380;2023-12-14T00:21:02;15;14;
83484;PMS5003;73420;32.678;-85.380;2023-12-14T00:23:28;13;13;
83484;PMS5003;73420;32.678;-85.380;2023-12-14T00:25:53;14;13;
83484;PMS5003;73420;32.678;-85.380;2023-12-14T00:28:19;14;12;
83484;PMS5003;73420;32.678;-85.380;2023-12-14T00:30:44;16;14;
83484;PMS5003;73420;32.678;-85.380;2023-12-14T00:33:09;17;16;
83484;PMS5003;73420;32.678;-85.380;2023-12-14T00:35:35;15;15;
83484;PMS5003;73420;32.678;-85.380;2023-12-14T00:38:00;14;14;
83484;PMS5003;73420;32.678;-85.380;2023-12-14T00:40:26;17;17;
83484;PMS5003;73420;32.678;-85.380;2023-12-14T00:42:51;19;16;
83484;PMS5003;73420;32.678;-85.380;2023-12-14T00:45:17;16;16;
83484;PMS5003;73420;32.678;-85.380;2023-12-14T00:47:42;15;14;
83484;PMS5003;73420;32.678;-85.380;2023-12-14T00:50:08;15;14;
83484;PMS5003;73420;32.678;-85.380;2023-12-14T00:52:33;14;14;
83484;PMS5003;73420;32.678;-85.380;2023-12-14T00:54:58;13;12;
83484;PMS5003;73420;32.678;-85.380;2023-12-14T00:57:23;12;12;
83484;PMS5003;73420;32.678;-85.380;2023-12-14T00:59:49;12;11;
83484;PMS5003;73420;32.678;-85.380;2023-12-14T01:02:15;11;11;
83484;PMS5003;73420;32.678;-85.380;2023-12-14T01:04:41;12;11;
83484;PMS5003;73420;32.678;-85.380;2023-12-14T01:07:06;12;11;
83484;PMS5003;73420;32.678;-85.380;2023-12-14T01:09:31;10;10;
83484;PMS5003;73420;32.678;-85.380;2023-12-14T01:11:57;15;14;
83484;PMS5003;73420;32.678;-85.380;2023-12-14T01:14:22;11;10;
83484;PMS5003;73420;32.678;-85.380;2023-12-14T01:16:48;11;10;
83484;PMS5003;73420;32.678;-85.380;2023-12-14T01:19:13;11;11;
83484;PMS5003;73420;32.678;-85.380;2023-12-14T01:21:39;9;9;
83484;PMS5003;73420;32.678;-85.380;2023-12-14T01:24:05;9;8;
83484;PMS5003;73420;32.678;-85.380;2023-12-14T01:26:30;9;9;
83484;PMS5003;73420;32.678;-85.380;2023-12-14T01:28:56;12;12;
83484;PMS5003;73420;32.678;-85.380;2023-12-14T01:31:21;10;10;
83484;PMS5003;73420;32.678;-85.380;2023-12-14T01:33:47;11;10;
83484;PMS5003;73420;32.678;-85.380;2023-12-14T01:36:19;8;7;
83484;PMS5003;73420;32.678;-85.380;2023-12-14T01:38:38;8;8;
83484;PMS5003;73420;32.678;-85.380;2023-12-14T01:41:04;10;10;
83484;PMS5003;73420;32.678;-85.380;2023-12-14T01:43:29;9;8;
83484;PMS5003;73420;32.678;-85.380;2023-12-14T01:45:54;10;10;
83484;PMS5003;73420;32.678;-85.380;2023-12-14T01:48:20;12;11;
83484;PMS5003;73420;32.678;-85.380;2023-12-14T01:50:45;11;10;
83484;PMS5003;73420;32.678;-85.380;2023-12-14T01:53:11;15;14;
83484;PMS5003;73420;32.678;-85.380;2023-12-14T01:55:36;14;13;
83484;PMS5003;73420;32.678;-85.380;2023-12-14T01:58:02;18;17;
83484;PMS5003;73420;32.678;-85.380;2023-12-14T02:00:29;14;14;
83484;PMS5003;73420;32.678;-85.380;2023-12-14T02:02:53;13;13;
83484;PMS5003;73420;32.678;-85.380;2023-12-14T02:05:19;16;16;
83484;PMS5003;73420;32.678;-85.380;2023-12-14T02:07:45;17;17;
83484;PMS5003;73420;32.678;-85.380;2023-12-14T02:10:10;17;17;
83484;PMS5003;73420;32.678;-85.380;2023-12-14T02:12:35;18;18;
83484;PMS5003;73420;32.678;-85.380;2023-12-14T02:15:01;20;18;
83484;PMS5003;73420;32.678;-85.380;2023-12-14T02:17:27;18;18;
83484;PMS5003;73420;32.678;-85.380;2023-12-14T02:19:52;21;21;
83484;PMS5003;73420;32.678;-85.380;2023-12-14T02:22:17;21;19;
83484;PMS5003;73420;32.678;-85.380;2023-12-14T02:24:43;19;18;
83484;PMS5003;73420;32.678;-85.380;2023-12-14T02:27:08;21;20;
83484;PMS5003;73420;32.678;-85.380;2023-12-14T02:29:34;20;20;
83484;PMS5003;73420;32.678;-85.380;2023-12-14T02:31:59;19;18;
83484;PMS5003;73420;32.678;-85.380;2023-12-14T02:34:24;21;20;
83484;PMS5003;73420;32.678;-85.380;2023-12-14T02:36:50;20;20;
83484;PMS5003;73420;32.678;-85.380;2023-12-14T02:39:16;17;16;
83484;PMS5003;73420;32.678;-85.380;2023-12-14T02:41:41;15;14;
83484;PMS5003;73420;32.678;-85.380;2023-12-14T02:44:06;17;16;
83484;PMS5003;73420;32.678;-85.380;2023-12-14T02:46:32;14;14;
83484;PMS5003;73420;32.678;-85.380;2023-12-14T02:48:57;14;14;
83484;PMS5003;73420;32.678;-85.380;2023-12-14T02:51:23;15;14;
83484;PMS5003;73420;32.678;-85.380;2023-12-14T02:53:48;16;16;
83484;PMS5003;73420;32.678;-85.380;2023-12-14T02:56:13;11;11;
83484;PMS5003;73420;32.678;-85.380;2023-12-14T02:58:39;13;13;
83484;PMS5003;73420;32.678;-85.380;2023-12-14T03:01:05;18;16;
83484;PMS5003;73420;32.678;-85.380;2023-12-14T03:03:30;13;12;
83484;PMS5003;73420;32.678;-85.380;2023-12-14T03:05:56;15;14;
83484;PMS5003;73420;32.678;-85.380;2023-12-14T03:08:22;17;16;
83484;PMS5003;73420;32.678;-85.380;2023-12-14T03:10:47;17;17;
83484;PMS5003;73420;32.678;-85.380;2023-12-14T03:13:13;16;14;
83484;PMS5003;73420;32.678;-85.380;2023-12-14T03:15:38;23;20;
83484;PMS5003;73420;32.678;-85.380;2023-12-14T03:18:04;20;19;
83484;PMS5003;73420;32.678;-85.380;2023-12-14T03:20:29;15;14;
83484;PMS5003;73420;32.678;-85.380;2023-12-14T03:22:55;17;17;
83484;PMS5003;73420;32.678;-85.380;2023-12-14T03:25:20;17;16;
83484;PMS5003;73420;32.678;-85.380;2023-12-14T03:27:46;18;16;
83484;PMS5003;73420;32.678;-85.380;2023-12-14T03:30:12;17;17;
83484;PMS5003;73420;32.678;-85.380;2023-12-14T03:32:36;25;23;
83484;PMS5003;73420;32.678;-85.380;2023-12-14T03:35:02;16;16;
83484;PMS5003;73420;32.678;-85.380;2023-12-14T03:37:27;18;18;
83484;PMS5003;73420;32.678;-85.380;2023-12-14T03:39:53;18;18;
83484;PMS5003;73420;32.678;-85.380;2023-12-14T03:42:19;20;20;
83484;PMS5003;73420;32.678;-85.380;2023-12-14T03:44:45;17;17;
83484;PMS5003;73420;32.678;-85.380;2023-12-14T03:47:10;15;15;
83484;PMS5003;73420;32.678;-85.380;2023-12-14T03:49:36;16;15;
83484;PMS5003;73420;32.678;-85.380;2023-12-14T03:52:02;20;20;
83484;PMS5003;73420;32.678;-85.380;2023-12-14T03:54:28;17;15;
83484;PMS5003;73420;32.678;-85.380;2023-12-14T03:56:53;17;16;
83484;PMS5003;73420;32.678;-85.380;2023-12-14T03:59:18;16;16;
83484;PMS5003;73420;32.678;-85.380;2023-12-14T04:01:44;16;16;
83484;PMS5003;73420;32.678;-85.380;2023-12-14T04:04:09;19;19;
83484;PMS5003;73420;32.678;-85.380;2023-12-14T04:06:35;19;18;
83484;PMS5003;73420;32.678;-85.380;2023-12-14T04:09:00;17;17;
83484;PMS5003;73420;32.678;-85.380;2023-12-14T04:11:26;16;16;
83484;PMS5003;73420;32.678;-85.380;2023-12-14T04:13:51;15;15;
83484;PMS5003;73420;32.678;-85.380;2023-12-14T04:16:19;16;16;
83484;PMS5003;73420;32.678;-85.380;2023-12-14T04:18:43;17;17;
83484;PMS5003;73420;32.678;-85.380;2023-12-14T04:21:08;15;14;
83484;PMS5003;73420;32.678;-85.380;2023-12-14T04:23:34;17;16;
83484;PMS5003;73420;32.678;-85.380;2023-12-14T04:25:59;16;15;
83484;PMS5003;73420;32.678;-85.380;2023-12-14T04:28:24;17;16;
83484;PMS5003;73420;32.678;-85.380;2023-12-14T04:30:51;20;19;
83484;PMS5003;73420;32.678;-85.380;2023-12-14T04:33:16;18;17;
83484;PMS5003;73420;32.678;-85.380;2023-12-14T04:35:41;17;16;
83484;PMS5003;73420;32.678;-85.380;2023-12-14T04:38:07;18;18;
83484;PMS5003;73420;32.678;-85.380;2023-12-14T04:40:32;18;18;
83484;PMS5003;73420;32.678;-85.380;2023-12-14T04:42:58;19;18;
83484;PMS5003;73420;32.678;-85.380;2023-12-14T04:45:23;22;20;
83484;PMS5003;73420;32.678;-85.380;2023-12-14T04:47:49;27;25;
83484;PMS5003;73420;32.678;-85.380;2023-12-14T04:50:14;16;16;
83484;PMS5003;73420;32.678;-85.380;2023-12-14T04:52:39;21;21;
83484;PMS5003;73420;32.678;-85.380;2023-12-14T04:55:05;21;19;
83484;PMS5003;73420;32.678;-85.380;2023-12-14T04:57:30;27;27;
83484;PMS5003;73420;32.678;-85.380;2023-12-14T04:59:55;24;23;
83484;PMS5003;73420;32.678;-85.380;2023-12-14T05:02:20;21;19;
83484;PMS5003;73420;32.678;-85.380;2023-12-14T05:04:46;25;25;
83484;PMS5003;73420;32.678;-85.380;2023-12-14T05:07:11;21;20;
83484;PMS5003;73420;32.678;-85.380;2023-12-14T05:09:37;22;22;
83484;PMS5003;73420;32.678;-85.380;2023-12-14T05:12:02;26;26;
83484;PMS5003;73420;32.678;-85.380;2023-12-14T05:14:28;24;21;
83484;PMS5003;73420;32.678;-85.380;2023-12-14T05:16:53;23;20;
83484;PMS5003;73420;32.678;-85.380;2023-12-14T05:19:19;22;22;
83484;PMS5003;73420;32.678;-85.380;2023-12-14T05:21:44;23;21;
83484;PMS5003;73420;32.678;-85.380;2023-12-14T05:24:09;21;20;
83484;PMS5003;73420;32.678;-85.380;2023-12-14T05:26:35;21;20;
83484;PMS5003;73420;32.678;-85.380;2023-12-14T05:29:00;24;23;
83484;PMS5003;73420;32.678;-85.380;2023-12-14T05:31:26;23;22;
83484;PMS5003;73420;32.678;-85.380;2023-12-14T05:33:52;22;22;
83484;PMS5003;73420;32.678;-85.380;2023-12-14T05:36:17;26;25;
83484;PMS5003;73420;32.678;-85.380;2023-12-14T05:38:43;23;22;
83484;PMS5003;73420;32.678;-85.380;2023-12-14T05:41:08;23;23;
83484;PMS5003;73420;32.678;-85.380;2023-12-14T05:43:34;23;22;
83484;PMS5003;73420;32.678;-85.380;2023-12-14T05:45:59;27;26;
83484;PMS5003;73420;32.678;-85.380;2023-12-14T05:48:24;25;24;
83484;PMS5003;73420;32.678;-85.380;2023-12-14T05:50:51;21;21;
83484;PMS5003;73420;32.678;-85.380;2023-12-14T05:53:15;23;23;
83484;PMS5003;73420;32.678;-85.380;2023-12-14T05:55:42;23;22;
83484;PMS5003;73420;32.678;-85.380;2023-12-14T05:58:05;25;25;
83484;PMS5003;73420;32.678;-85.380;2023-12-14T06:00:31;25;25;
83484;PMS5003;73420;32.678;-85.380;2023-12-14T06:02:56;23;21;
83484;PMS5003;73420;32.678;-85.380;2023-12-14T06:05:21;28;27;
83484;PMS5003;73420;32.678;-85.380;2023-12-14T06:07:47;24;23;
83484;PMS5003;73420;32.678;-85.380;2023-12-14T06:10:13;28;28;
83484;PMS5003;73420;32.678;-85.380;2023-12-14T06:12:38;24;24;
83484;PMS5003;73420;32.678;-85.380;2023-12-14T06:15:04;26;26;
83484;PMS5003;73420;32.678;-85.380;2023-12-14T06:17:29;25;25;
83484;PMS5003;73420;32.678;-85.380;2023-12-14T06:19:55;23;22;
83484;PMS5003;73420;32.678;-85.380;2023-12-14T06:22:20;24;24;
83484;PMS5003;73420;32.678;-85.380;2023-12-14T06:24:45;28;24;
83484;PMS5003;73420;32.678;-85.380;2023-12-14T06:27:10;25;25;
83484;PMS5003;73420;32.678;-85.380;2023-12-14T06:29:35;25;25;
83484;PMS5003;73420;32.678;-85.380;2023-12-14T06:32:01;30;29;
83484;PMS5003;73420;32.678;-85.380;2023-12-14T06:34:26;27;25;
83484;PMS5003;73420;32.678;-85.380;2023-12-14T06:36:51;24;24;
83484;PMS5003;73420;32.678;-85.380;2023-12-14T06:39:17;28;26;
83484;PMS5003;73420;32.678;-85.380;2023-12-14T06:41:42;24;24;
83484;PMS5003;73420;32.678;-85.380;2023-12-14T06:44:08;25;22;
83484;PMS5003;73420;32.678;-85.380;2023-12-14T06:46:33;25;25;
83484;PMS5003;73420;32.678;-85.380;2023-12-14T06:48:59;27;25;
83484;PMS5003;73420;32.678;-85.380;2023-12-14T06:51:24;26;25;
83484;PMS5003;73420;32.678;-85.380;2023-12-14T06:53:49;22;22;
83484;PMS5003;73420;32.678;-85.380;2023-12-14T06:56:15;23;22;
83484;PMS5003;73420;32.678;-85.380;2023-12-14T06:58:41;27;26;
83484;PMS5003;73420;32.678;-85.380;2023-12-14T07:01:05;29;29;
83484;PMS5003;73420;32.678;-85.380;2023-12-14T07:03:31;27;26;
83484;PMS5003;73420;32.678;-85.380;2023-12-14T07:05:56;21;20;
83484;PMS5003;73420;32.678;-85.380;2023-12-14T07:08:22;24;24;
83484;PMS5003;73420;32.678;-85.380;2023-12-14T07:10:47;23;22;
83484;PMS5003;73420;32.678;-85.380;2023-12-14T07:13:12;22;21;
83484;PMS5003;73420;32.678;-85.380;2023-12-14T07:15:37;21;20;
83484;PMS5003;73420;32.678;-85.380;2023-12-14T07:18:02;21;21;
83484;PMS5003;73420;32.678;-85.380;2023-12-14T07:20:28;19;19;
83484;PMS5003;73420;32.678;-85.380;2023-12-14T07:22:53;23;23;
83484;PMS5003;73420;32.678;-85.380;2023-12-14T07:25:19;27;26;
83484;PMS5003;73420;32.678;-85.380;2023-12-14T07:27:44;25;25;
83484;PMS5003;73420;32.678;-85.380;2023-12-14T07:30:10;24;22;
83484;PMS5003;73420;32.678;-85.380;2023-12-14T07:32:35;22;22;
83484;PMS5003;73420;32.678;-85.380;2023-12-14T07:35:00;25;23;
83484;PMS5003;73420;32.678;-85.380;2023-12-14T07:37:25;22;20;
83484;PMS5003;73420;32.678;-85.380;2023-12-14T07:39:50;20;20;
83484;PMS5003;73420;32.678;-85.380;2023-12-14T07:42:16;20;19;
83484;PMS5003;73420;32.678;-85.380;2023-12-14T07:44:42;20;20;
83484;PMS5003;73420;32.678;-85.380;2023-12-14T07:47:07;22;21;
83484;PMS5003;73420;32.678;-85.380;2023-12-14T07:49:33;20;20;
83484;PMS5003;73420;32.678;-85.380;2023-12-14T07:51:58;25;24;
83484;PMS5003;73420;32.678;-85.380;2023-12-14T07:54:23;18;18;
83484;PMS5003;73420;32.678;-85.380;2023-12-14T07:56:49;26;22;
83484;PMS5003;73420;32.678;-85.380;2023-12-14T07:59:15;20;19;
83484;PMS5003;73420;32.678;-85.380;2023-12-14T08:01:40;28;25;
83484;PMS5003;73420;32.678;-85.380;2023-12-14T08:04:05;18;17;
83484;PMS5003;73420;32.678;-85.380;2023-12-14T08:06:31;20;20;
83484;PMS5003;73420;32.678;-85.380;2023-12-14T08:08:57;15;15;
83484;PMS5003;73420;32.678;-85.380;2023-12-14T08:11:22;22;21;
83484;PMS5003;73420;32.678;-85.380;2023-12-14T08:13:47;19;18;
83484;PMS5003;73420;32.678;-85.380;2023-12-14T08:16:13;18;17;
83484;PMS5003;73420;32.678;-85.380;2023-12-14T08:18:39;18;18;
83484;PMS5003;73420;32.678;-85.380;2023-12-14T08:21:05;19;19;
83484;PMS5003;73420;32.678;-85.380;2023-12-14T08:23:30;18;18;
83484;PMS5003;73420;32.678;-85.380;2023-12-14T08:25:55;20;20;
83484;PMS5003;73420;32.678;-85.380;2023-12-14T08:28:20;15;15;
83484;PMS5003;73420;32.678;-85.380;2023-12-14T08:30:46;19;18;
83484;PMS5003;73420;32.678;-85.380;2023-12-14T08:33:12;18;18;
83484;PMS5003;73420;32.678;-85.380;2023-12-14T08:35:37;16;16;
83484;PMS5003;73420;32.678;-85.380;2023-12-14T08:38:03;18;18;
83484;PMS5003;73420;32.678;-85.380;2023-12-14T08:40:28;23;22;
83484;PMS5003;73420;32.678;-85.380;2023-12-14T08:42:53;17;17;
83484;PMS5003;73420;32.678;-85.380;2023-12-14T08:45:19;17;17;
83484;PMS5003;73420;32.678;-85.380;2023-12-14T08:47:44;20;18;
83484;PMS5003;73420;32.678;-85.380;2023-12-14T08:50:11;20;20;
83484;PMS5003;73420;32.678;-85.380;2023-12-14T08:52:34;20;20;
83484;PMS5003;73420;32.678;-85.380;2023-12-14T08:54:59;22;20;
83484;PMS5003;73420;32.678;-85.380;2023-12-14T08:57:25;22;21;
83484;PMS5003;73420;32.678;-85.380;2023-12-14T08:59:50;21;20;
83484;PMS5003;73420;32.678;-85.380;2023-12-14T09:02:15;23;22;
83484;PMS5003;73420;32.678;-85.380;2023-12-14T09:04:41;21;21;
83484;PMS5003;73420;32.678;-85.380;2023-12-14T09:07:06;19;19;
83484;PMS5003;73420;32.678;-85.380;2023-12-14T09:09:31;20;20;
83484;PMS5003;73420;32.678;-85.380;2023-12-14T09:11:57;22;21;
83484;PMS5003;73420;32.678;-85.380;2023-12-14T09:14:22;21;18;
83484;PMS5003;73420;32.678;-85.380;2023-12-14T09:16:47;26;24;
83484;PMS5003;73420;32.678;-85.380;2023-12-14T09:19:12;19;19;
83484;PMS5003;73420;32.678;-85.380;2023-12-14T09:21:38;22;21;
83484;PMS5003;73420;32.678;-85.380;2023-12-14T09:24:04;23;22;
83484;PMS5003;73420;32.678;-85.380;2023-12-14T09:26:29;21;21;
83484;PMS5003;73420;32.678;-85.380;2023-12-14T09:28:54;18;18;
83484;PMS5003;73420;32.678;-85.380;2023-12-14T09:31:20;18;18;
83484;PMS5003;73420;32.678;-85.380;2023-12-14T09:33:45;20;20;
83484;PMS5003;73420;32.678;-85.380;2023-12-14T09:36:10;23;22;
83484;PMS5003;73420;32.678;-85.380;2023-12-14T09:38:36;22;22;
83484;PMS5003;73420;32.678;-85.380;2023-12-14T09:41:02;21;21;
83484;PMS5003;73420;32.678;-85.380;2023-12-14T09:43:27;22;21;
83484;PMS5003;73420;32.678;-85.380;2023-12-14T09:45:53;19;18;
83484;PMS5003;73420;32.678;-85.380;2023-12-14T09:48:18;24;21;
83484;PMS5003;73420;32.678;-85.380;2023-12-14T09:50:43;23;23;
83484;PMS5003;73420;32.678;-85.380;2023-12-14T09:53:09;26;24;
83484;PMS5003;73420;32.678;-85.380;2023-12-14T09:55:34;19;19;
83484;PMS5003;73420;32.678;-85.380;2023-12-14T09:58:00;21;20;
83484;PMS5003;73420;32.678;-85.380;2023-12-14T10:02:51;18;18;
83484;PMS5003;73420;32.678;-85.380;2023-12-14T10:05:19;23;23;
83484;PMS5003;73420;32.678;-85.380;2023-12-14T10:07:43;26;25;
83484;PMS5003;73420;32.678;-85.380;2023-12-14T10:10:09;23;21;
83484;PMS5003;73420;32.678;-85.380;2023-12-14T10:12:33;21;21;
83484;PMS5003;73420;32.678;-85.380;2023-12-14T10:15:00;20;20;
83484;PMS5003;73420;32.678;-85.380;2023-12-14T10:17:24;25;24;
83484;PMS5003;73420;32.678;-85.380;2023-12-14T10:19:50;21;20;
83484;PMS5003;73420;32.678;-85.380;2023-12-14T10:22:16;27;26;
83484;PMS5003;73420;32.678;-85.380;2023-12-14T10:24:42;22;22;
83484;PMS5003;73420;32.678;-85.380;2023-12-14T10:27:06;21;20;
83484;PMS5003;73420;32.678;-85.380;2023-12-14T10:29:32;28;26;
83484;PMS5003;73420;32.678;-85.380;2023-12-14T10:31:57;23;22;
83484;PMS5003;73420;32.678;-85.380;2023-12-14T10:34:23;26;24;
83484;PMS5003;73420;32.678;-85.380;2023-12-14T10:36:48;26;25;
83484;PMS5003;73420;32.678;-85.380;2023-12-14T10:39:14;24;23;
83484;PMS5003;73420;32.678;-85.380;2023-12-14T10:41:39;24;24;
83484;PMS5003;73420;32.678;-85.380;2023-12-14T10:44:04;27;25;
83484;PMS5003;73420;32.678;-85.380;2023-12-14T10:46:29;23;22;
83484;PMS5003;73420;32.678;-85.380;2023-12-14T10:48:55;24;23;
83484;PMS5003;73420;32.678;-85.380;2023-12-14T10:51:20;21;21;
83484;PMS5003;73420;32.678;-85.380;2023-12-14T10:53:45;22;21;
83484;PMS5003;73420;32.678;-85.380;2023-12-14T10:56:11;28;26;
83484;PMS5003;73420;32.678;-85.380;2023-12-14T10:58:45;29;26;
83484;PMS5003;73420;32.678;-85.380;2023-12-14T11:01:02;24;23;
83484;PMS5003;73420;32.678;-85.380;2023-12-14T11:03:32;23;23;
83484;PMS5003;73420;32.678;-85.380;2023-12-14T11:05:53;25;23;
83484;PMS5003;73420;32.678;-85.380;2023-12-14T11:08:19;26;25;
83484;PMS5003;73420;32.678;-85.380;2023-12-14T11:13:11;21;20;
83484;PMS5003;73420;32.678;-85.380;2023-12-14T11:15:36;25;25;
83484;PMS5003;73420;32.678;-85.380;2023-12-14T11:20:27;22;21;
83484;PMS5003;73420;32.678;-85.380;2023-12-14T11:22:57;26;24;
83484;PMS5003;73420;32.678;-85.380;2023-12-14T11:25:17;22;22;
83484;PMS5003;73420;32.678;-85.380;2023-12-14T11:27:43;26;24;
83484;PMS5003;73420;32.678;-85.380;2023-12-14T11:30:08;22;21;
83484;PMS5003;73420;32.678;-85.380;2023-12-14T11:32:33;27;25;
83484;PMS5003;73420;32.678;-85.380;2023-12-14T11:34:59;19;19;
83484;PMS5003;73420;32.678;-85.380;2023-12-14T11:37:24;28;27;
83484;PMS5003;73420;32.678;-85.380;2023-12-14T11:39:50;25;23;
83484;PMS5003;73420;32.678;-85.380;2023-12-14T11:42:16;21;20;
83484;PMS5003;73420;32.678;-85.380;2023-12-14T11:44:40;24;23;
83484;PMS5003;73420;32.678;-85.380;2023-12-14T11:47:06;22;22;
83484;PMS5003;73420;32.678;-85.380;2023-12-14T11:49:31;21;21;
83484;PMS5003;73420;32.678;-85.380;2023-12-14T11:51:56;21;20;
83484;PMS5003;73420;32.678;-85.380;2023-12-14T11:54:22;23;23;
83484;PMS5003;73420;32.678;-85.380;2023-12-14T11:56:48;22;21;
83484;PMS5003;73420;32.678;-85.380;2023-12-14T11:59:14;25;24;
83484;PMS5003;73420;32.678;-85.380;2023-12-14T12:01:38;21;21;
83484;PMS5003;73420;32.678;-85.380;2023-12-14T12:04:08;21;21;
83484;PMS5003;73420;32.678;-85.380;2023-12-14T12:06:29;18;18;
83484;PMS5003;73420;32.678;-85.380;2023-12-14T12:08:55;22;21;
83484;PMS5003;73420;32.678;-85.380;2023-12-14T12:11:21;25;24;
83484;PMS5003;73420;32.678;-85.380;2023-12-14T12:13:50;21;20;
83484;PMS5003;73420;32.678;-85.380;2023-12-14T12:16:10;24;21;
83484;PMS5003;73420;32.678;-85.380;2023-12-14T12:18:36;20;19;
83484;PMS5003;73420;32.678;-85.380;2023-12-14T12:21:02;19;18;
83484;PMS5003;73420;32.678;-85.380;2023-12-14T12:23:27;20;20;
83484;PMS5003;73420;32.678;-85.380;2023-12-14T12:25:52;22;22;
83484;PMS5003;73420;32.678;-85.380;2023-12-14T12:28:18;24;23;
83484;PMS5003;73420;32.678;-85.380;2023-12-14T12:30:43;23;23;
83484;PMS5003;73420;32.678;-85.380;2023-12-14T12:33:08;32;30;
83484;PMS5003;73420;32.678;-85.380;2023-12-14T12:35:35;23;22;
83484;PMS5003;73420;32.678;-85.380;2023-12-14T12:37:59;22;22;
83484;PMS5003;73420;32.678;-85.380;2023-12-14T12:40:24;22;22;
83484;PMS5003;73420;32.678;-85.380;2023-12-14T12:42:50;21;21;
83484;PMS5003;73420;32.678;-85.380;2023-12-14T12:45:15;22;21;
83484;PMS5003;73420;32.678;-85.380;2023-12-14T12:47:41;27;25;
83484;PMS5003;73420;32.678;-85.380;2023-12-14T12:50:07;24;24;
83484;PMS5003;73420;32.678;-85.380;2023-12-14T12:52:32;22;21;
83484;PMS5003;73420;32.678;-85.380;2023-12-14T12:54:58;22;21;
83484;PMS5003;73420;32.678;-85.380;2023-12-14T12:57:23;26;23;
83484;PMS5003;73420;32.678;-85.380;2023-12-14T12:59:48;21;19;
83484;PMS5003;73420;32.678;-85.380;2023-12-14T13:02:13;27;25;
83484;PMS5003;73420;32.678;-85.380;2023-12-14T13:04:38;25;21;
83484;PMS5003;73420;32.678;-85.380;2023-12-14T13:07:04;20;20;
83484;PMS5003;73420;32.678;-85.380;2023-12-14T13:09:30;21;21;
83484;PMS5003;73420;32.678;-85.380;2023-12-14T13:11:56;24;24;
83484;PMS5003;73420;32.678;-85.380;2023-12-14T13:14:21;23;22;
83484;PMS5003;73420;32.678;-85.380;2023-12-14T13:16:46;23;23;
83484;PMS5003;73420;32.678;-85.380;2023-12-14T13:19:12;24;24;
83484;PMS5003;73420;32.678;-85.380;2023-12-14T13:21:37;22;22;
83484;PMS5003;73420;32.678;-85.380;2023-12-14T13:24:03;22;21;
83484;PMS5003;73420;32.678;-85.380;2023-12-14T13:26:29;23;20;
83484;PMS5003;73420;32.678;-85.380;2023-12-14T13:28:54;19;19;
83484;PMS5003;73420;32.678;-85.380;2023-12-14T13:31:19;23;22;
83484;PMS5003;73420;32.678;-85.380;2023-12-14T13:33:45;24;24;
83484;PMS5003;73420;32.678;-85.380;2023-12-14T13:36:10;20;20;
83484;PMS5003;73420;32.678;-85.380;2023-12-14T13:38:35;18;18;
83484;PMS5003;73420;32.678;-85.380;2023-12-14T13:41:00;22;22;
83484;PMS5003;73420;32.678;-85.380;2023-12-14T13:43:26;19;18;
83484;PMS5003;73420;32.678;-85.380;2023-12-14T13:45:51;22;21;
83484;PMS5003;73420;32.678;-85.380;2023-12-14T13:48:17;17;17;
83484;PMS5003;73420;32.678;-85.380;2023-12-14T13:50:43;49;45;
83484;PMS5003;73420;32.678;-85.380;2023-12-14T13:53:08;40;39;
83484;PMS5003;73420;32.678;-85.380;2023-12-14T13:55:34;38;35;
83484;PMS5003;73420;32.678;-85.380;2023-12-14T13:57:59;21;21;
83484;PMS5003;73420;32.678;-85.380;2023-12-14T14:00:25;23;21;
83484;PMS5003;73420;32.678;-85.380;2023-12-14T14:02:50;17;17;
83484;PMS5003;73420;32.678;-85.380;2023-12-14T14:05:16;19;18;
83484;PMS5003;73420;32.678;-85.380;2023-12-14T14:07:41;19;16;
83484;PMS5003;73420;32.678;-85.380;2023-12-14T14:10:07;18;18;
83484;PMS5003;73420;32.678;-85.380;2023-12-14T14:12:32;16;16;
83484;PMS5003;73420;32.678;-85.380;2023-12-14T14:14:58;17;16;
83484;PMS5003;73420;32.678;-85.380;2023-12-14T14:17:23;21;19;
83484;PMS5003;73420;32.678;-85.380;2023-12-14T14:19:49;18;16;
83484;PMS5003;73420;32.678;-85.380;2023-12-14T14:22:14;15;15;
83484;PMS5003;73420;32.678;-85.380;2023-12-14T14:24:39;24;23;
83484;PMS5003;73420;32.678;-85.380;2023-12-14T14:27:05;18;18;
83484;PMS5003;73420;32.678;-85.380;2023-12-14T14:29:30;17;16;
83484;PMS5003;73420;32.678;-85.380;2023-12-14T14:31:56;15;13;
83484;PMS5003;73420;32.678;-85.380;2023-12-14T14:34:21;15;14;
83484;PMS5003;73420;32.678;-85.380;2023-12-14T14:36:47;16;16;
83484;PMS5003;73420;32.678;-85.380;2023-12-14T14:39:12;16;16;
83484;PMS5003;73420;32.678;-85.380;2023-12-14T14:41:38;14;14;
83484;PMS5003;73420;32.678;-85.380;2023-12-14T14:44:03;14;14;
83484;PMS5003;73420;32.678;-85.380;2023-12-14T14:46:29;14;14;
83484;PMS5003;73420;32.678;-85.380;2023-12-14T14:48:55;13;13;
83484;PMS5003;73420;32.678;-85.380;2023-12-14T14:51:20;16;16;
83484;PMS5003;73420;32.678;-85.380;2023-12-14T14:53:45;13;13;
83484;PMS5003;73420;32.678;-85.380;2023-12-14T14:56:10;12;12;
83484;PMS5003;73420;32.678;-85.380;2023-12-14T14:58:36;14;14;
83484;PMS5003;73420;32.678;-85.380;2023-12-14T15:01:02;15;15;
83484;PMS5003;73420;32.678;-85.380;2023-12-14T15:03:27;12;12;
83484;PMS5003;73420;32.678;-85.380;2023-12-14T15:05:52;14;14;
83484;PMS5003;73420;32.678;-85.380;2023-12-14T15:08:18;9;9;
83484;PMS5003;73420;32.678;-85.380;2023-12-14T15:10:43;12;12;
83484;PMS5003;73420;32.678;-85.380;2023-12-14T15:13:10;14;14;
83484;PMS5003;73420;32.678;-85.380;2023-12-14T15:15:35;9;9;
83484;PMS5003;73420;32.678;-85.380;2023-12-14T15:18:00;14;13;
83484;PMS5003;73420;32.678;-85.380;2023-12-14T15:20:26;14;14;
83484;PMS5003;73420;32.678;-85.380;2023-12-14T15:22:51;13;11;
83484;PMS5003;73420;32.678;-85.380;2023-12-14T15:25:17;13;12;
83484;PMS5003;73420;32.678;-85.380;2023-12-14T15:27:42;12;11;
83484;PMS5003;73420;32.678;-85.380;2023-12-14T15:30:08;10;10;
83484;PMS5003;73420;32.678;-85.380;2023-12-14T15:32:33;12;12;
83484;PMS5003;73420;32.678;-85.380;2023-12-14T15:34:58;10;9;
83484;PMS5003;73420;32.678;-85.380;2023-12-14T15:37:24;12;11;
83484;PMS5003;73420;32.678;-85.380;2023-12-14T15:39:49;14;14;
83484;PMS5003;73420;32.678;-85.380;2023-12-14T15:42:14;15;13;